Time;durP1;ratioP1;P1;durP2;ratioP2;P2;SDS_P1;SDS_P2;PMS_P1;PMS_P2;Temp;Humidity;BMP_temperature;BMP_pressure;BME280_temperature;BME280_humidity;BME280_pressure;Samples;Min_cycle;Max_cycle;Signal;HPM_P1;HPM_P2
2022/06/27 00:02:48;;;;;;;0.20;0.00;;;24.10;99.90;;;;;;21239389;28;20281;-73
2022/06/27 00:12:52;;;;;;;0.20;0.00;;;24.20;99.90;;;;;;21239777;28;20239;-72
2022/06/27 00:22:58;;;;;;;0.20;0.00;;;24.30;99.90;;;;;;21235710;28;20227;-70
2022/06/27 00:33:02;;;;;;;0.20;0.00;;;24.20;99.90;;;;;;21238157;28;20242;-70
2022/06/27 00:43:07;;;;;;;0.20;0.00;;;23.90;99.90;;;;;;21232668;28;20221;-71
2022/06/27 00:53:11;;;;;;;0.20;0.00;;;23.90;99.90;;;;;;21234786;27;20283;-70
2022/06/27 01:03:16;;;;;;;0.20;0.00;;;24.00;99.90;;;;;;21234604;28;20197;-69
2022/06/27 01:13:20;;;;;;;0.20;0.00;;;23.90;99.90;;;;;;21233911;28;20219;-70
2022/06/27 01:23:26;;;;;;;0.20;0.10;;;23.90;99.90;;;;;;21232823;28;20223;-69
2022/06/27 01:33:30;;;;;;;0.20;0.00;;;23.90;99.90;;;;;;21231935;28;20239;-70
2022/06/27 01:43:35;;;;;;;0.20;0.00;;;23.60;99.90;;;;;;21231949;27;20206;-69
2022/06/27 01:53:39;;;;;;;0.20;0.00;;;23.60;99.90;;;;;;21229747;28;20238;-70
2022/06/27 02:03:45;;;;;;;0.20;0.00;;;23.50;99.90;;;;;;21230213;28;20219;-69
2022/06/27 02:13:49;;;;;;;0.20;0.00;;;23.50;99.90;;;;;;21228162;28;20218;-70
2022/06/27 02:23:56;;;;;;;0.20;0.00;;;23.20;99.90;;;;;;21227316;27;20758;-70
2022/06/27 02:33:59;;;;;;;0.20;0.00;;;23.00;99.90;;;;;;21226721;27;20241;-70
2022/06/27 02:44:08;;;;;;;0.20;0.00;;;23.00;99.90;;;;;;21227500;28;20624;-71
2022/06/27 02:54:17;;;;;;;0.20;0.00;;;23.00;99.90;;;;;;21226592;28;20219;-71
2022/06/27 03:04:22;;;;;;;0.20;0.00;;;23.00;99.90;;;;;;21224747;28;20220;-70
2022/06/27 03:14:26;;;;;;;0.20;0.00;;;23.00;99.90;;;;;;21224847;28;20223;-70
2022/06/27 03:24:31;;;;;;;0.20;0.00;;;23.00;99.90;;;;;;21223739;28;20250;-70
2022/06/27 03:34:35;;;;;;;0.20;0.00;;;22.90;99.90;;;;;;21224977;28;20286;-71
2022/06/27 03:44:40;;;;;;;0.20;0.00;;;22.90;99.90;;;;;;21220926;28;20199;-71
2022/06/27 03:54:44;;;;;;;0.20;0.00;;;22.90;99.90;;;;;;21221863;28;20290;-70
2022/06/27 04:04:49;;;;;;;0.20;0.00;;;23.00;99.90;;;;;;21222212;28;20196;-69
2022/06/27 04:14:53;;;;;;;0.20;0.00;;;23.20;99.90;;;;;;21231672;28;20257;-71
2022/06/27 04:24:59;;;;;;;0.20;0.00;;;23.20;99.90;;;;;;21234056;28;20239;-70
2022/06/27 04:35:03;;;;;;;0.20;0.00;;;23.30;99.90;;;;;;21235186;28;20243;-72
2022/06/27 04:45:11;;;;;;;0.20;0.00;;;23.60;99.90;;;;;;21234864;28;20191;-71
2022/06/27 04:55:15;;;;;;;0.20;0.00;;;23.60;99.90;;;;;;21234573;28;20215;-70
2022/06/27 05:05:20;;;;;;;0.20;0.10;;;23.70;99.90;;;;;;21232055;28;20191;-71
2022/06/27 05:15:24;;;;;;;0.20;0.00;;;23.70;99.90;;;;;;21231348;28;20462;-71
2022/06/27 05:25:30;;;;;;;0.20;0.00;;;23.80;99.90;;;;;;21229226;28;20222;-69
2022/06/27 05:35:34;;;;;;;0.20;0.00;;;23.90;99.90;;;;;;21229165;28;20235;-69
2022/06/27 05:45:40;;;;;;;0.20;0.00;;;23.80;99.90;;;;;;21229330;27;20189;-69
2022/06/27 05:55:46;;;;;;;0.20;0.00;;;23.90;99.90;;;;;;21226868;28;20226;-69
2022/06/27 06:05:52;;;;;;;0.20;0.00;;;24.10;99.90;;;;;;21227599;28;20195;-70
2022/06/27 06:15:57;;;;;;;0.20;0.00;;;24.50;99.90;;;;;;21223647;28;20223;-70
2022/06/27 06:26:02;;;;;;;0.20;0.00;;;24.80;99.90;;;;;;21223635;28;20202;-70
2022/06/27 06:36:07;;;;;;;0.20;0.08;;;25.00;99.90;;;;;;21223217;28;20287;-72
2022/06/27 06:46:12;;;;;;;0.20;0.10;;;25.20;99.90;;;;;;21221445;28;20217;-72
2022/06/27 06:56:16;;;;;;;0.20;0.00;;;25.50;99.90;;;;;;21203481;28;20239;-72
2022/06/27 07:06:24;;;;;;;0.20;0.00;;;26.00;99.90;;;;;;21218934;28;20985;-70
2022/06/27 07:16:29;;;;;;;0.20;0.00;;;25.80;99.90;;;;;;21219012;28;20272;-69
2022/06/27 07:26:35;;;;;;;0.20;0.00;;;26.20;99.90;;;;;;21217174;28;20221;-69
2022/06/27 07:36:39;;;;;;;0.20;0.00;;;26.00;99.90;;;;;;21218557;28;20211;-68
2022/06/27 07:46:44;;;;;;;0.20;0.00;;;26.10;99.90;;;;;;21222980;28;20188;-69
2022/06/27 07:56:49;;;;;;;0.20;0.00;;;25.20;99.90;;;;;;21236237;28;20287;-66
2022/06/27 08:07:06;;;;;;;0.20;0.00;;;25.20;99.90;;;;;;21234822;28;20199;-68
2022/06/27 08:17:11;;;;;;;0.20;0.10;;;25.30;99.90;;;;;;21235535;28;20231;-69
2022/06/27 08:27:16;;;;;;;0.20;0.00;;;25.60;99.90;;;;;;21230925;28;20199;-69
2022/06/27 08:37:23;;;;;;;0.20;0.10;;;25.80;99.90;;;;;;21232107;28;20219;-68
2022/06/27 08:47:30;;;;;;;0.20;0.00;;;26.20;99.90;;;;;;21231310;28;20199;-68
2022/06/27 08:57:36;;;;;;;0.20;0.00;;;25.90;99.90;;;;;;21232540;28;20226;-68
2022/06/27 09:07:50;;;;;;;0.20;0.00;;;26.20;99.90;;;;;;21231863;28;20293;-68
2022/06/27 09:18:09;;;;;;;0.20;0.00;;;26.60;99.90;;;;;;21231054;28;20235;-67
2022/06/27 09:28:15;;;;;;;0.20;0.00;;;26.30;99.90;;;;;;21226634;28;20218;-68
2022/06/27 09:38:21;;;;;;;0.20;0.00;;;26.50;99.90;;;;;;21229931;28;20291;-68
2022/06/27 09:48:28;;;;;;;0.20;0.00;;;27.00;99.90;;;;;;21227684;28;20202;-71
2022/06/27 09:58:33;;;;;;;0.20;0.00;;;27.40;99.90;;;;;;21227032;28;20234;-66
2022/06/27 10:09:01;;;;;;;0.20;0.00;;;26.90;99.90;;;;;;21225020;28;20198;-67
2022/06/27 10:19:05;;;;;;;0.20;0.00;;;27.10;99.90;;;;;;21225789;28;20223;-68
2022/06/27 10:29:44;;;;;;;0.20;0.00;;;27.10;99.90;;;;;;21224014;28;20206;-70
2022/06/27 10:39:48;;;;;;;0.20;0.00;;;27.40;99.90;;;;;;21223140;28;20191;-69
2022/06/27 10:50:16;;;;;;;0.20;0.00;;;28.00;99.90;;;;;;21222867;28;20250;-68
2022/06/27 11:00:47;;;;;;;0.20;0.00;;;27.50;99.90;;;;;;21221671;28;20210;-69
2022/06/27 11:10:53;;;;;;;0.20;0.00;;;28.10;99.90;;;;;;21220900;28;20222;-68
2022/06/27 11:20:58;;;;;;;0.20;0.10;;;27.80;99.90;;;;;;21219281;28;20250;-69
2022/06/27 11:41:27;;;;;;;0.20;0.00;;;27.90;99.90;;;;;;21220087;28;20191;-69
2022/06/27 11:51:38;;;;;;;0.20;0.00;;;28.30;99.90;;;;;;21219243;28;20227;-68
2022/06/27 12:01:53;;;;;;;0.20;0.00;;;27.80;99.90;;;;;;21221129;28;20194;-67
2022/06/27 12:12:04;;;;;;;0.20;0.10;;;27.60;99.90;;;;;;21220579;28;20252;-69
2022/06/27 12:22:08;;;;;;;0.20;0.10;;;27.60;99.90;;;;;;21217193;28;20231;-68
2022/06/27 12:32:35;;;;;;;0.20;0.10;;;28.20;99.90;;;;;;21219947;28;20215;-68
2022/06/27 12:42:40;;;;;;;0.20;0.00;;;28.50;99.90;;;;;;21233689;28;20217;-70
2022/06/27 12:52:46;;;;;;;0.20;0.00;;;27.30;99.90;;;;;;21232099;28;20211;-70
2022/06/27 13:02:50;;;;;;;0.20;0.00;;;30.40;99.90;;;;;;21231225;28;20211;-68
2022/06/27 13:13:03;;;;;;;0.20;0.00;;;31.40;99.90;;;;;;21231677;28;20218;-68
2022/06/27 13:23:07;;;;;;;0.20;0.00;;;31.60;99.90;;;;;;21228954;28;20320;-67
2022/06/27 13:33:12;;;;;;;0.20;0.00;;;30.90;99.90;;;;;;21229345;28;20235;-67
2022/06/27 13:43:16;;;;;;;0.20;0.00;;;32.10;99.90;;;;;;21228240;28;20202;-68
2022/06/27 13:53:22;;;;;;;0.20;0.00;;;32.40;99.90;;;;;;21228405;28;20258;-68
2022/06/27 14:03:25;;;;;;;0.20;0.00;;;32.90;99.90;;;;;;21227344;28;20320;-68
2022/06/27 14:13:31;;;;;;;0.20;0.00;;;34.00;99.90;;;;;;21224627;28;20227;-67
2022/06/27 14:23:34;;;;;;;0.20;0.00;;;33.10;99.90;;;;;;21226890;28;20321;-72
2022/06/27 14:33:40;;;;;;;0.20;0.00;;;33.30;99.90;;;;;;21220055;28;20211;-68
2022/06/27 14:43:43;;;;;;;0.20;0.00;;;31.30;99.90;;;;;;21219708;28;20203;-69
2022/06/27 14:53:49;;;;;;;0.20;0.00;;;31.60;99.90;;;;;;21214963;28;20211;-68
2022/06/27 15:04:00;;;;;;;0.20;0.00;;;33.90;99.90;;;;;;21215479;28;20210;-68
2022/06/27 15:14:07;;;;;;;0.20;0.00;;;32.60;99.90;;;;;;21216515;28;20301;-68
2022/06/27 15:24:12;;;;;;;0.20;0.00;;;31.50;99.90;;;;;;21216695;28;20249;-67
2022/06/27 15:34:18;;;;;;;0.20;0.00;;;32.50;99.90;;;;;;21219012;28;20243;-68
2022/06/27 15:44:22;;;;;;;0.20;0.00;;;31.50;99.90;;;;;;21215991;28;20195;-68
2022/06/27 15:54:27;;;;;;;0.20;0.00;;;32.60;99.90;;;;;;21215329;28;20231;-68
2022/06/27 16:04:32;;;;;;;0.20;0.10;;;31.20;99.90;;;;;;21216826;28;20192;-68
2022/06/27 16:14:37;;;;;;;0.20;0.00;;;29.60;99.90;;;;;;21231796;28;20246;-69
2022/06/27 16:24:41;;;;;;;0.20;0.00;;;29.40;99.90;;;;;;21230572;28;20249;-68
2022/06/27 16:34:46;;;;;;;0.20;0.00;;;29.50;99.90;;;;;;21230470;28;20239;-68
2022/06/27 16:44:50;;;;;;;0.20;0.00;;;30.30;99.90;;;;;;21228130;28;20217;-67
2022/06/27 16:54:55;;;;;;;0.20;0.00;;;30.60;99.90;;;;;;21222081;28;20203;-68
2022/06/27 17:04:59;;;;;;;0.20;0.00;;;28.20;99.90;;;;;;21223962;28;20195;-68
2022/06/27 17:15:05;;;;;;;0.20;0.00;;;27.70;99.90;;;;;;21220257;28;20290;-68
2022/06/27 17:25:09;;;;;;;0.20;0.00;;;27.60;99.90;;;;;;21224624;28;20230;-69
2022/06/27 17:35:15;;;;;;;0.20;0.00;;;27.50;99.90;;;;;;21218872;28;20283;-69
2022/06/27 17:45:19;;;;;;;0.20;0.00;;;27.20;99.90;;;;;;21222389;28;20259;-68
2022/06/27 17:55:24;;;;;;;0.20;0.10;;;27.20;99.90;;;;;;21220230;28;20291;-69
2022/06/27 18:05:28;;;;;;;0.20;0.00;;;27.30;99.90;;;;;;21222154;28;20222;-70
2022/06/27 18:15:34;;;;;;;0.20;0.10;;;27.20;99.90;;;;;;21219439;28;20249;-69
2022/06/27 18:25:37;;;;;;;0.20;0.00;;;26.50;99.90;;;;;;21215745;28;20213;-68
2022/06/27 18:35:42;;;;;;;0.20;0.00;;;26.90;99.90;;;;;;21215774;28;20222;-71
2022/06/27 18:45:46;;;;;;;0.20;0.00;;;25.60;99.90;;;;;;21216441;28;20208;-71
2022/06/27 18:55:52;;;;;;;0.20;0.00;;;23.70;99.90;;;;;;21202861;28;20232;-70
2022/06/27 19:05:57;;;;;;;0.20;0.00;;;23.90;99.90;;;;;;21217295;28;20207;-70
2022/06/27 19:16:02;;;;;;;0.20;0.00;;;24.30;99.90;;;;;;21214887;28;21124;-70
2022/06/27 19:26:06;;;;;;;0.20;0.10;;;24.50;99.90;;;;;;21216097;28;20187;-70
2022/06/27 19:36:11;;;;;;;0.20;0.00;;;24.70;99.90;;;;;;21215375;28;20231;-69
2022/06/27 19:46:15;;;;;;;0.20;0.00;;;24.60;99.90;;;;;;21225631;28;20278;-69
2022/06/27 19:56:21;;;;;;;0.20;0.00;;;24.50;99.90;;;;;;21231369;28;20235;-70
2022/06/27 20:06:25;;;;;;;0.20;0.10;;;24.60;99.90;;;;;;21232204;28;20209;-71
2022/06/27 20:16:31;;;;;;;0.20;0.10;;;25.00;99.90;;;;;;21226799;27;20799;-69
2022/06/27 20:26:35;;;;;;;0.20;0.10;;;25.10;99.90;;;;;;21232500;28;20258;-71
2022/06/27 20:36:40;;;;;;;0.20;0.10;;;25.00;99.90;;;;;;21230959;28;20243;-71
2022/06/27 20:46:44;;;;;;;0.20;0.00;;;24.90;99.90;;;;;;21228255;28;20195;-71
2022/06/27 20:56:49;;;;;;;0.20;0.00;;;24.60;99.90;;;;;;21227579;28;20250;-69
2022/06/27 21:06:53;;;;;;;0.20;0.00;;;24.20;99.90;;;;;;21227606;28;20194;-69
2022/06/27 21:16:59;;;;;;;0.20;0.00;;;24.10;99.90;;;;;;21229132;28;20241;-71
2022/06/27 21:27:06;;;;;;;0.20;0.00;;;23.80;99.90;;;;;;21227932;28;20191;-69
2022/06/27 21:37:12;;;;;;;0.20;0.00;;;23.70;99.90;;;;;;21223966;28;20246;-70
2022/06/27 21:47:15;;;;;;;0.20;0.00;;;23.70;99.90;;;;;;21227779;28;20214;-69
2022/06/27 21:57:21;;;;;;;0.20;0.00;;;23.50;99.90;;;;;;21223526;28;20211;-70
2022/06/27 22:07:24;;;;;;;0.20;0.00;;;23.20;99.90;;;;;;21226160;28;20191;-70
2022/06/27 22:17:29;;;;;;;0.20;0.10;;;23.00;99.90;;;;;;21223719;28;20238;-70
2022/06/27 22:27:34;;;;;;;0.20;0.00;;;23.10;99.90;;;;;;21225479;28;20214;-68
2022/06/27 22:37:39;;;;;;;0.20;0.00;;;23.00;99.90;;;;;;21224079;28;20231;-70
2022/06/27 22:47:42;;;;;;;0.20;0.00;;;23.00;99.90;;;;;;21224317;28;20223;-70
2022/06/27 22:57:48;;;;;;;0.20;0.10;;;22.90;99.90;;;;;;21218678;28;20230;-70
2022/06/27 23:07:51;;;;;;;0.20;0.00;;;22.80;99.90;;;;;;21218693;28;20268;-69
2022/06/27 23:17:57;;;;;;;0.20;0.00;;;22.90;99.90;;;;;;21214838;28;20237;-69
2022/06/27 23:28:00;;;;;;;0.20;0.00;;;22.90;99.90;;;;;;21223583;28;20215;-69
2022/06/27 23:38:06;;;;;;;0.20;0.00;;;22.80;99.90;;;;;;21223585;28;20230;-67
2022/06/27 23:48:10;;;;;;;0.20;0.10;;;22.70;99.90;;;;;;21222621;28;20215;-69
2022/06/27 23:58:15;;;;;;;0.20;0.00;;;22.70;99.90;;;;;;21223363;28;20238;-70
